sensor_id;sensor_type;location;lat;lon;timestamp;P1;durP1;ratioP1;P2;durP2;ratioP2
21647;SDS011;10985;54.182;7.890;2023-05-07T00:00:17;34.17;;;22.63;;
21647;SDS011;10985;54.182;7.890;2023-05-07T00:02:44;36.92;;;24.13;;
21647;SDS011;10985;54.182;7.890;2023-05-07T00:05:10;33.85;;;22.23;;
21647;SDS011;10985;54.182;7.890;2023-05-07T00:07:35;35.10;;;20.63;;
21647;SDS011;10985;54.182;7.890;2023-05-07T00:10:01;35.92;;;21.30;;
21647;SDS011;10985;54.182;7.890;2023-05-07T00:12:27;31.65;;;20.27;;
21647;SDS011;10985;54.182;7.890;2023-05-07T00:14:56;30.02;;;19.58;;
21647;SDS011;10985;54.182;7.890;2023-05-07T00:17:22;31.50;;;20.27;;
21647;SDS011;10985;54.182;7.890;2023-05-07T00:19:47;35.63;;;22.02;;
21647;SDS011;10985;54.182;7.890;2023-05-07T00:22:13;29.02;;;21.42;;
21647;SDS011;10985;54.182;7.890;2023-05-07T00:24:39;35.53;;;23.48;;
21647;SDS011;10985;54.182;7.890;2023-05-07T00:27:04;37.72;;;23.77;;
21647;SDS011;10985;54.182;7.890;2023-05-07T00:29:30;33.90;;;21.73;;
21647;SDS011;10985;54.182;7.890;2023-05-07T00:31:55;35.95;;;23.70;;
21647;SDS011;10985;54.182;7.890;2023-05-07T00:34:21;38.95;;;24.27;;
21647;SDS011;10985;54.182;7.890;2023-05-07T00:36:47;44.33;;;26.20;;
21647;SDS011;10985;54.182;7.890;2023-05-07T00:39:13;46.83;;;25.70;;
21647;SDS011;10985;54.182;7.890;2023-05-07T00:41:38;36.13;;;24.52;;
21647;SDS011;10985;54.182;7.890;2023-05-07T00:44:04;41.00;;;26.05;;
21647;SDS011;10985;54.182;7.890;2023-05-07T00:46:29;38.90;;;23.42;;
21647;SDS011;10985;54.182;7.890;2023-05-07T00:48:56;41.33;;;23.85;;
21647;SDS011;10985;54.182;7.890;2023-05-07T00:51:22;38.22;;;23.77;;
21647;SDS011;10985;54.182;7.890;2023-05-07T00:53:50;41.45;;;24.85;;
21647;SDS011;10985;54.182;7.890;2023-05-07T00:56:15;32.03;;;22.83;;
21647;SDS011;10985;54.182;7.890;2023-05-07T00:58:41;37.20;;;24.05;;
21647;SDS011;10985;54.182;7.890;2023-05-07T01:01:07;36.83;;;22.45;;
21647;SDS011;10985;54.182;7.890;2023-05-07T01:03:32;32.95;;;22.25;;
21647;SDS011;10985;54.182;7.890;2023-05-07T01:05:58;36.85;;;21.98;;
21647;SDS011;10985;54.182;7.890;2023-05-07T01:08:25;32.85;;;20.52;;
21647;SDS011;10985;54.182;7.890;2023-05-07T01:10:53;31.02;;;20.52;;
21647;SDS011;10985;54.182;7.890;2023-05-07T01:13:20;30.20;;;19.75;;
21647;SDS011;10985;54.182;7.890;2023-05-07T01:15:45;34.05;;;21.38;;
21647;SDS011;10985;54.182;7.890;2023-05-07T01:18:11;33.38;;;23.00;;
21647;SDS011;10985;54.182;7.890;2023-05-07T01:20:37;34.75;;;22.63;;
21647;SDS011;10985;54.182;7.890;2023-05-07T01:23:02;38.35;;;22.67;;
21647;SDS011;10985;54.182;7.890;2023-05-07T01:25:28;41.00;;;23.35;;
21647;SDS011;10985;54.182;7.890;2023-05-07T01:27:55;36.58;;;24.52;;
21647;SDS011;10985;54.182;7.890;2023-05-07T01:30:20;36.50;;;22.05;;
21647;SDS011;10985;54.182;7.890;2023-05-07T01:32:55;43.65;;;23.35;;
21647;SDS011;10985;54.182;7.890;2023-05-07T01:35:27;37.30;;;22.60;;
21647;SDS011;10985;54.182;7.890;2023-05-07T01:37:57;39.30;;;23.02;;
21647;SDS011;10985;54.182;7.890;2023-05-07T01:40:23;44.42;;;22.88;;
21647;SDS011;10985;54.182;7.890;2023-05-07T01:42:49;35.88;;;23.23;;
21647;SDS011;10985;54.182;7.890;2023-05-07T01:45:15;37.75;;;23.20;;
21647;SDS011;10985;54.182;7.890;2023-05-07T01:47:41;42.33;;;23.73;;
21647;SDS011;10985;54.182;7.890;2023-05-07T01:52:39;36.72;;;24.38;;
21647;SDS011;10985;54.182;7.890;2023-05-07T01:55:05;40.15;;;24.55;;
21647;SDS011;10985;54.182;7.890;2023-05-07T01:57:31;41.00;;;25.45;;
21647;SDS011;10985;54.182;7.890;2023-05-07T01:59:57;36.42;;;24.45;;
21647;SDS011;10985;54.182;7.890;2023-05-07T02:02:22;33.63;;;25.80;;
21647;SDS011;10985;54.182;7.890;2023-05-07T02:04:48;43.88;;;27.63;;
21647;SDS011;10985;54.182;7.890;2023-05-07T02:07:13;43.08;;;26.85;;
21647;SDS011;10985;54.182;7.890;2023-05-07T02:09:39;39.95;;;26.35;;
21647;SDS011;10985;54.182;7.890;2023-05-07T02:12:04;37.40;;;26.02;;
21647;SDS011;10985;54.182;7.890;2023-05-07T02:14:30;46.78;;;27.17;;
21647;SDS011;10985;54.182;7.890;2023-05-07T02:16:55;41.47;;;25.42;;
21647;SDS011;10985;54.182;7.890;2023-05-07T02:19:21;42.13;;;27.73;;
21647;SDS011;10985;54.182;7.890;2023-05-07T02:21:46;47.03;;;27.77;;
21647;SDS011;10985;54.182;7.890;2023-05-07T02:24:12;42.13;;;27.98;;
21647;SDS011;10985;54.182;7.890;2023-05-07T02:26:39;48.28;;;30.60;;
21647;SDS011;10985;54.182;7.890;2023-05-07T02:29:05;46.97;;;31.08;;
21647;SDS011;10985;54.182;7.890;2023-05-07T02:31:31;42.08;;;30.27;;
21647;SDS011;10985;54.182;7.890;2023-05-07T02:33:58;43.08;;;29.88;;
21647;SDS011;10985;54.182;7.890;2023-05-07T02:36:24;43.67;;;29.52;;
21647;SDS011;10985;54.182;7.890;2023-05-07T02:38:50;43.03;;;29.80;;
21647;SDS011;10985;54.182;7.890;2023-05-07T02:41:15;38.85;;;28.73;;
21647;SDS011;10985;54.182;7.890;2023-05-07T02:43:41;42.20;;;28.45;;
21647;SDS011;10985;54.182;7.890;2023-05-07T02:46:07;45.78;;;28.58;;
21647;SDS011;10985;54.182;7.890;2023-05-07T02:48:33;40.00;;;27.98;;
21647;SDS011;10985;54.182;7.890;2023-05-07T02:50:59;39.47;;;26.60;;
21647;SDS011;10985;54.182;7.890;2023-05-07T02:53:25;39.97;;;25.48;;
21647;SDS011;10985;54.182;7.890;2023-05-07T02:55:55;31.23;;;22.70;;
21647;SDS011;10985;54.182;7.890;2023-05-07T02:58:21;31.95;;;21.05;;
21647;SDS011;10985;54.182;7.890;2023-05-07T03:00:47;28.27;;;22.70;;
21647;SDS011;10985;54.182;7.890;2023-05-07T03:03:13;31.83;;;21.85;;
21647;SDS011;10985;54.182;7.890;2023-05-07T03:05:39;37.63;;;22.45;;
21647;SDS011;10985;54.182;7.890;2023-05-07T03:08:05;31.52;;;21.90;;
21647;SDS011;10985;54.182;7.890;2023-05-07T03:10:30;34.70;;;22.48;;
21647;SDS011;10985;54.182;7.890;2023-05-07T03:12:56;32.15;;;22.38;;
21647;SDS011;10985;54.182;7.890;2023-05-07T03:15:21;37.45;;;25.25;;
21647;SDS011;10985;54.182;7.890;2023-05-07T03:17:47;30.60;;;22.80;;
21647;SDS011;10985;54.182;7.890;2023-05-07T03:20:13;29.98;;;23.05;;
21647;SDS011;10985;54.182;7.890;2023-05-07T03:22:39;29.38;;;21.95;;
21647;SDS011;10985;54.182;7.890;2023-05-07T03:25:06;36.67;;;23.17;;
21647;SDS011;10985;54.182;7.890;2023-05-07T03:27:32;30.70;;;21.85;;
21647;SDS011;10985;54.182;7.890;2023-05-07T03:29:58;28.50;;;21.45;;
21647;SDS011;10985;54.182;7.890;2023-05-07T03:32:23;36.30;;;22.48;;
21647;SDS011;10985;54.182;7.890;2023-05-07T03:34:49;32.85;;;23.65;;
21647;SDS011;10985;54.182;7.890;2023-05-07T03:37:14;38.70;;;23.08;;
21647;SDS011;10985;54.182;7.890;2023-05-07T03:39:40;36.83;;;24.05;;
21647;SDS011;10985;54.182;7.890;2023-05-07T03:42:05;34.90;;;24.40;;
21647;SDS011;10985;54.182;7.890;2023-05-07T03:44:31;38.20;;;23.58;;
21647;SDS011;10985;54.182;7.890;2023-05-07T03:46:56;35.10;;;22.27;;
21647;SDS011;10985;54.182;7.890;2023-05-07T03:49:22;39.33;;;24.25;;
21647;SDS011;10985;54.182;7.890;2023-05-07T03:51:47;35.40;;;23.45;;
21647;SDS011;10985;54.182;7.890;2023-05-07T03:54:13;30.88;;;22.58;;
21647;SDS011;10985;54.182;7.890;2023-05-07T03:56:38;32.45;;;22.05;;
21647;SDS011;10985;54.182;7.890;2023-05-07T03:59:04;38.08;;;24.17;;
21647;SDS011;10985;54.182;7.890;2023-05-07T04:01:30;31.27;;;21.85;;
21647;SDS011;10985;54.182;7.890;2023-05-07T04:03:56;25.63;;;20.27;;
21647;SDS011;10985;54.182;7.890;2023-05-07T04:06:21;26.50;;;19.23;;
21647;SDS011;10985;54.182;7.890;2023-05-07T04:08:47;31.80;;;20.77;;
21647;SDS011;10985;54.182;7.890;2023-05-07T04:11:12;32.95;;;21.83;;
21647;SDS011;10985;54.182;7.890;2023-05-07T04:13:38;33.05;;;20.83;;
21647;SDS011;10985;54.182;7.890;2023-05-07T04:16:04;26.85;;;19.25;;
21647;SDS011;10985;54.182;7.890;2023-05-07T04:18:30;28.45;;;20.70;;
21647;SDS011;10985;54.182;7.890;2023-05-07T04:20:56;34.13;;;20.85;;
21647;SDS011;10985;54.182;7.890;2023-05-07T04:23:21;30.40;;;20.42;;
21647;SDS011;10985;54.182;7.890;2023-05-07T04:25:47;32.03;;;20.63;;
21647;SDS011;10985;54.182;7.890;2023-05-07T04:28:12;29.10;;;21.10;;
21647;SDS011;10985;54.182;7.890;2023-05-07T04:30:38;30.80;;;20.70;;
21647;SDS011;10985;54.182;7.890;2023-05-07T04:33:04;31.38;;;20.67;;
21647;SDS011;10985;54.182;7.890;2023-05-07T04:35:31;34.63;;;19.05;;
21647;SDS011;10985;54.182;7.890;2023-05-07T04:37:57;26.45;;;18.98;;
21647;SDS011;10985;54.182;7.890;2023-05-07T04:40:22;30.38;;;20.65;;
21647;SDS011;10985;54.182;7.890;2023-05-07T04:42:48;36.85;;;22.42;;
21647;SDS011;10985;54.182;7.890;2023-05-07T04:45:14;24.50;;;16.85;;
21647;SDS011;10985;54.182;7.890;2023-05-07T04:47:40;24.02;;;16.20;;
21647;SDS011;10985;54.182;7.890;2023-05-07T04:50:06;27.55;;;16.95;;
21647;SDS011;10985;54.182;7.890;2023-05-07T04:52:33;26.23;;;16.35;;
21647;SDS011;10985;54.182;7.890;2023-05-07T04:54:59;28.23;;;16.95;;
21647;SDS011;10985;54.182;7.890;2023-05-07T04:57:25;25.15;;;16.90;;
21647;SDS011;10985;54.182;7.890;2023-05-07T04:59:51;26.88;;;17.80;;
21647;SDS011;10985;54.182;7.890;2023-05-07T05:02:17;27.73;;;18.02;;
21647;SDS011;10985;54.182;7.890;2023-05-07T05:04:42;27.38;;;18.77;;
21647;SDS011;10985;54.182;7.890;2023-05-07T05:07:08;25.25;;;18.15;;
21647;SDS011;10985;54.182;7.890;2023-05-07T05:09:33;23.10;;;19.13;;
21647;SDS011;10985;54.182;7.890;2023-05-07T05:11:59;21.90;;;18.08;;
21647;SDS011;10985;54.182;7.890;2023-05-07T05:14:25;26.77;;;18.80;;
21647;SDS011;10985;54.182;7.890;2023-05-07T05:16:50;23.80;;;18.95;;
21647;SDS011;10985;54.182;7.890;2023-05-07T05:19:16;23.40;;;19.67;;
21647;SDS011;10985;54.182;7.890;2023-05-07T05:21:41;26.80;;;19.48;;
21647;SDS011;10985;54.182;7.890;2023-05-07T05:24:07;24.13;;;19.48;;
21647;SDS011;10985;54.182;7.890;2023-05-07T05:26:33;22.50;;;18.27;;
21647;SDS011;10985;54.182;7.890;2023-05-07T05:28:58;28.30;;;20.08;;
21647;SDS011;10985;54.182;7.890;2023-05-07T05:31:24;28.05;;;20.58;;
21647;SDS011;10985;54.182;7.890;2023-05-07T05:33:49;31.20;;;17.38;;
21647;SDS011;10985;54.182;7.890;2023-05-07T05:36:15;24.40;;;17.48;;
21647;SDS011;10985;54.182;7.890;2023-05-07T05:38:41;20.50;;;15.48;;
21647;SDS011;10985;54.182;7.890;2023-05-07T05:41:06;21.48;;;15.35;;
21647;SDS011;10985;54.182;7.890;2023-05-07T05:43:32;21.20;;;14.65;;
21647;SDS011;10985;54.182;7.890;2023-05-07T05:45:57;21.25;;;15.27;;
21647;SDS011;10985;54.182;7.890;2023-05-07T05:48:23;22.42;;;15.57;;
21647;SDS011;10985;54.182;7.890;2023-05-07T05:50:49;22.75;;;13.98;;
21647;SDS011;10985;54.182;7.890;2023-05-07T05:53:14;19.77;;;15.30;;
21647;SDS011;10985;54.182;7.890;2023-05-07T05:55:40;18.20;;;15.25;;
21647;SDS011;10985;54.182;7.890;2023-05-07T05:58:06;18.45;;;14.68;;
21647;SDS011;10985;54.182;7.890;2023-05-07T06:00:32;22.23;;;15.82;;
21647;SDS011;10985;54.182;7.890;2023-05-07T06:02:58;24.33;;;14.85;;
21647;SDS011;10985;54.182;7.890;2023-05-07T06:05:23;20.58;;;15.77;;
21647;SDS011;10985;54.182;7.890;2023-05-07T06:07:49;23.80;;;15.65;;
21647;SDS011;10985;54.182;7.890;2023-05-07T06:10:14;26.67;;;16.75;;
21647;SDS011;10985;54.182;7.890;2023-05-07T06:12:40;20.25;;;16.45;;
21647;SDS011;10985;54.182;7.890;2023-05-07T06:15:05;26.05;;;17.23;;
21647;SDS011;10985;54.182;7.890;2023-05-07T06:17:31;23.40;;;15.30;;
21647;SDS011;10985;54.182;7.890;2023-05-07T06:19:57;21.98;;;15.20;;
21647;SDS011;10985;54.182;7.890;2023-05-07T06:22:22;21.40;;;17.27;;
21647;SDS011;10985;54.182;7.890;2023-05-07T06:24:48;22.40;;;15.00;;
21647;SDS011;10985;54.182;7.890;2023-05-07T06:27:13;21.38;;;15.82;;
21647;SDS011;10985;54.182;7.890;2023-05-07T06:29:39;24.38;;;16.00;;
21647;SDS011;10985;54.182;7.890;2023-05-07T06:32:12;21.85;;;16.58;;
21647;SDS011;10985;54.182;7.890;2023-05-07T06:34:38;21.08;;;16.45;;
21647;SDS011;10985;54.182;7.890;2023-05-07T06:37:05;26.35;;;16.95;;
21647;SDS011;10985;54.182;7.890;2023-05-07T06:39:31;20.83;;;16.30;;
21647;SDS011;10985;54.182;7.890;2023-05-07T06:41:57;23.23;;;16.50;;
21647;SDS011;10985;54.182;7.890;2023-05-07T06:44:23;24.95;;;17.75;;
21647;SDS011;10985;54.182;7.890;2023-05-07T06:46:48;28.83;;;19.17;;
21647;SDS011;10985;54.182;7.890;2023-05-07T06:49:14;28.45;;;19.10;;
21647;SDS011;10985;54.182;7.890;2023-05-07T06:51:39;24.20;;;18.90;;
21647;SDS011;10985;54.182;7.890;2023-05-07T06:54:05;25.88;;;18.90;;
21647;SDS011;10985;54.182;7.890;2023-05-07T06:56:31;29.20;;;19.42;;
21647;SDS011;10985;54.182;7.890;2023-05-07T06:58:57;31.65;;;19.00;;
21647;SDS011;10985;54.182;7.890;2023-05-07T07:01:23;22.98;;;17.80;;
21647;SDS011;10985;54.182;7.890;2023-05-07T07:03:48;24.77;;;20.17;;
21647;SDS011;10985;54.182;7.890;2023-05-07T07:06:14;25.30;;;19.98;;
21647;SDS011;10985;54.182;7.890;2023-05-07T07:08:39;27.52;;;19.08;;
21647;SDS011;10985;54.182;7.890;2023-05-07T07:11:05;27.45;;;19.55;;
21647;SDS011;10985;54.182;7.890;2023-05-07T07:13:31;26.70;;;18.20;;
21647;SDS011;10985;54.182;7.890;2023-05-07T07:15:56;31.35;;;19.80;;
21647;SDS011;10985;54.182;7.890;2023-05-07T07:18:22;29.45;;;18.50;;
21647;SDS011;10985;54.182;7.890;2023-05-07T07:20:48;33.08;;;19.90;;
21647;SDS011;10985;54.182;7.890;2023-05-07T07:23:13;29.00;;;20.13;;
21647;SDS011;10985;54.182;7.890;2023-05-07T07:25:39;26.17;;;20.48;;
21647;SDS011;10985;54.182;7.890;2023-05-07T07:28:05;27.05;;;20.77;;
21647;SDS011;10985;54.182;7.890;2023-05-07T07:30:31;22.30;;;19.30;;
21647;SDS011;10985;54.182;7.890;2023-05-07T07:32:56;24.70;;;19.88;;
21647;SDS011;10985;54.182;7.890;2023-05-07T07:35:28;25.30;;;18.13;;
21647;SDS011;10985;54.182;7.890;2023-05-07T07:37:54;25.23;;;18.88;;
21647;SDS011;10985;54.182;7.890;2023-05-07T07:40:20;28.05;;;19.25;;
21647;SDS011;10985;54.182;7.890;2023-05-07T07:42:46;23.95;;;18.88;;
21647;SDS011;10985;54.182;7.890;2023-05-07T07:45:11;29.10;;;17.88;;
21647;SDS011;10985;54.182;7.890;2023-05-07T07:47:37;27.70;;;18.38;;
21647;SDS011;10985;54.182;7.890;2023-05-07T07:50:04;29.92;;;17.83;;
21647;SDS011;10985;54.182;7.890;2023-05-07T07:52:30;26.90;;;18.52;;
21647;SDS011;10985;54.182;7.890;2023-05-07T07:54:56;29.35;;;19.05;;
21647;SDS011;10985;54.182;7.890;2023-05-07T07:57:21;21.25;;;16.05;;
21647;SDS011;10985;54.182;7.890;2023-05-07T07:59:47;19.83;;;15.63;;
21647;SDS011;10985;54.182;7.890;2023-05-07T08:02:12;29.23;;;17.38;;
21647;SDS011;10985;54.182;7.890;2023-05-07T08:04:38;25.98;;;17.23;;
21647;SDS011;10985;54.182;7.890;2023-05-07T08:07:03;23.48;;;16.65;;
21647;SDS011;10985;54.182;7.890;2023-05-07T08:09:29;25.55;;;18.25;;
21647;SDS011;10985;54.182;7.890;2023-05-07T08:11:54;25.98;;;16.63;;
21647;SDS011;10985;54.182;7.890;2023-05-07T08:14:20;24.27;;;15.80;;
21647;SDS011;10985;54.182;7.890;2023-05-07T08:16:45;20.52;;;15.43;;
21647;SDS011;10985;54.182;7.890;2023-05-07T08:19:11;20.50;;;15.70;;
21647;SDS011;10985;54.182;7.890;2023-05-07T08:21:39;26.25;;;16.00;;
21647;SDS011;10985;54.182;7.890;2023-05-07T08:24:05;25.70;;;15.73;;
21647;SDS011;10985;54.182;7.890;2023-05-07T08:26:31;21.73;;;16.35;;
21647;SDS011;10985;54.182;7.890;2023-05-07T08:28:57;21.17;;;16.40;;
21647;SDS011;10985;54.182;7.890;2023-05-07T08:31:22;26.75;;;17.38;;
21647;SDS011;10985;54.182;7.890;2023-05-07T08:33:48;23.42;;;14.85;;
21647;SDS011;10985;54.182;7.890;2023-05-07T08:36:13;22.98;;;15.88;;
21647;SDS011;10985;54.182;7.890;2023-05-07T08:38:38;26.85;;;16.52;;
21647;SDS011;10985;54.182;7.890;2023-05-07T08:41:05;22.92;;;15.15;;
21647;SDS011;10985;54.182;7.890;2023-05-07T08:43:32;21.58;;;14.48;;
21647;SDS011;10985;54.182;7.890;2023-05-07T08:46:01;21.60;;;15.65;;
21647;SDS011;10985;54.182;7.890;2023-05-07T08:48:27;24.60;;;14.75;;
21647;SDS011;10985;54.182;7.890;2023-05-07T08:50:55;19.83;;;14.00;;
21647;SDS011;10985;54.182;7.890;2023-05-07T08:53:22;18.15;;;13.43;;
21647;SDS011;10985;54.182;7.890;2023-05-07T08:55:48;16.60;;;13.68;;
21647;SDS011;10985;54.182;7.890;2023-05-07T08:58:14;19.35;;;14.10;;
21647;SDS011;10985;54.182;7.890;2023-05-07T09:00:39;19.90;;;13.43;;
21647;SDS011;10985;54.182;7.890;2023-05-07T09:03:06;21.52;;;13.60;;
21647;SDS011;10985;54.182;7.890;2023-05-07T09:05:31;18.02;;;14.13;;
21647;SDS011;10985;54.182;7.890;2023-05-07T09:08:01;18.92;;;14.50;;
21647;SDS011;10985;54.182;7.890;2023-05-07T09:10:28;24.83;;;15.68;;
21647;SDS011;10985;54.182;7.890;2023-05-07T09:12:54;16.70;;;14.63;;
21647;SDS011;10985;54.182;7.890;2023-05-07T09:15:20;19.20;;;14.82;;
21647;SDS011;10985;54.182;7.890;2023-05-07T09:17:45;21.02;;;15.93;;
21647;SDS011;10985;54.182;7.890;2023-05-07T09:20:11;21.02;;;15.20;;
21647;SDS011;10985;54.182;7.890;2023-05-07T09:22:37;27.23;;;15.95;;
21647;SDS011;10985;54.182;7.890;2023-05-07T09:25:03;18.95;;;15.30;;
21647;SDS011;10985;54.182;7.890;2023-05-07T09:27:30;24.77;;;14.70;;
21647;SDS011;10985;54.182;7.890;2023-05-07T09:29:56;19.90;;;15.32;;
21647;SDS011;10985;54.182;7.890;2023-05-07T09:32:21;22.17;;;14.77;;
21647;SDS011;10985;54.182;7.890;2023-05-07T09:34:47;23.95;;;15.82;;
21647;SDS011;10985;54.182;7.890;2023-05-07T09:37:12;23.42;;;14.50;;
21647;SDS011;10985;54.182;7.890;2023-05-07T09:39:42;19.83;;;14.98;;
21647;SDS011;10985;54.182;7.890;2023-05-07T09:42:09;20.85;;;13.68;;
21647;SDS011;10985;54.182;7.890;2023-05-07T09:44:36;18.48;;;13.00;;
21647;SDS011;10985;54.182;7.890;2023-05-07T09:47:04;18.85;;;13.23;;
21647;SDS011;10985;54.182;7.890;2023-05-07T09:49:33;19.67;;;13.50;;
21647;SDS011;10985;54.182;7.890;2023-05-07T09:52:00;20.83;;;13.70;;
21647;SDS011;10985;54.182;7.890;2023-05-07T09:54:27;19.90;;;12.93;;
21647;SDS011;10985;54.182;7.890;2023-05-07T09:56:55;16.08;;;11.55;;
21647;SDS011;10985;54.182;7.890;2023-05-07T09:59:22;13.20;;;11.32;;
21647;SDS011;10985;54.182;7.890;2023-05-07T10:01:47;18.13;;;12.15;;
21647;SDS011;10985;54.182;7.890;2023-05-07T10:04:14;19.02;;;12.00;;
21647;SDS011;10985;54.182;7.890;2023-05-07T10:06:40;18.27;;;12.13;;
21647;SDS011;10985;54.182;7.890;2023-05-07T10:09:06;20.15;;;12.82;;
21647;SDS011;10985;54.182;7.890;2023-05-07T10:11:33;20.95;;;12.60;;
21647;SDS011;10985;54.182;7.890;2023-05-07T10:13:59;19.23;;;12.05;;
21647;SDS011;10985;54.182;7.890;2023-05-07T10:16:27;19.35;;;12.57;;
21647;SDS011;10985;54.182;7.890;2023-05-07T10:18:57;23.27;;;12.40;;
21647;SDS011;10985;54.182;7.890;2023-05-07T10:21:23;19.85;;;12.20;;
21647;SDS011;10985;54.182;7.890;2023-05-07T10:24:05;15.23;;;12.05;;
21647;SDS011;10985;54.182;7.890;2023-05-07T10:26:35;17.92;;;12.65;;
21647;SDS011;10985;54.182;7.890;2023-05-07T10:29:03;15.43;;;11.73;;
21647;SDS011;10985;54.182;7.890;2023-05-07T10:34:29;14.45;;;12.15;;
21647;SDS011;10985;54.182;7.890;2023-05-07T10:37:01;15.55;;;12.05;;
21647;SDS011;10985;54.182;7.890;2023-05-07T10:39:27;17.60;;;10.93;;
21647;SDS011;10985;54.182;7.890;2023-05-07T10:41:52;19.55;;;11.30;;
21647;SDS011;10985;54.182;7.890;2023-05-07T10:44:25;17.85;;;12.02;;
21647;SDS011;10985;54.182;7.890;2023-05-07T10:47:05;18.10;;;12.23;;
21647;SDS011;10985;54.182;7.890;2023-05-07T10:49:33;16.13;;;11.07;;
21647;SDS011;10985;54.182;7.890;2023-05-07T10:52:23;15.23;;;11.05;;
21647;SDS011;10985;54.182;7.890;2023-05-07T10:57:50;20.60;;;11.85;;
21647;SDS011;10985;54.182;7.890;2023-05-07T11:05:28;19.35;;;11.05;;
21647;SDS011;10985;54.182;7.890;2023-05-07T11:07:56;16.65;;;11.55;;
21647;SDS011;10985;54.182;7.890;2023-05-07T11:10:23;18.00;;;11.95;;
21647;SDS011;10985;54.182;7.890;2023-05-07T11:13:08;17.23;;;11.68;;
21647;SDS011;10985;54.182;7.890;2023-05-07T11:15:38;21.27;;;11.75;;
21647;SDS011;10985;54.182;7.890;2023-05-07T11:18:06;14.20;;;10.38;;
21647;SDS011;10985;54.182;7.890;2023-05-07T11:20:45;19.15;;;11.48;;
21647;SDS011;10985;54.182;7.890;2023-05-07T11:25:59;17.08;;;10.40;;
21647;SDS011;10985;54.182;7.890;2023-05-07T11:28:27;22.48;;;11.20;;
21647;SDS011;10985;54.182;7.890;2023-05-07T11:30:53;13.48;;;9.88;;
21647;SDS011;10985;54.182;7.890;2023-05-07T11:33:19;16.65;;;11.20;;
21647;SDS011;10985;54.182;7.890;2023-05-07T11:35:45;17.48;;;10.15;;
21647;SDS011;10985;54.182;7.890;2023-05-07T11:38:11;15.88;;;10.13;;
21647;SDS011;10985;54.182;7.890;2023-05-07T11:40:53;16.67;;;10.05;;
21647;SDS011;10985;54.182;7.890;2023-05-07T11:43:20;15.38;;;10.45;;
21647;SDS011;10985;54.182;7.890;2023-05-07T11:45:46;16.85;;;9.90;;
21647;SDS011;10985;54.182;7.890;2023-05-07T11:48:12;15.90;;;9.70;;
21647;SDS011;10985;54.182;7.890;2023-05-07T11:50:52;17.30;;;10.20;;
21647;SDS011;10985;54.182;7.890;2023-05-07T11:53:19;15.48;;;9.68;;
21647;SDS011;10985;54.182;7.890;2023-05-07T11:55:45;16.15;;;10.15;;
21647;SDS011;10985;54.182;7.890;2023-05-07T11:58:12;12.95;;;9.38;;
21647;SDS011;10985;54.182;7.890;2023-05-07T12:00:51;14.52;;;9.45;;
21647;SDS011;10985;54.182;7.890;2023-05-07T12:03:17;15.50;;;10.10;;
21647;SDS011;10985;54.182;7.890;2023-05-07T12:05:47;12.48;;;8.60;;
21647;SDS011;10985;54.182;7.890;2023-05-07T12:08:16;11.85;;;8.80;;
21647;SDS011;10985;54.182;7.890;2023-05-07T12:10:43;12.70;;;8.68;;
21647;SDS011;10985;54.182;7.890;2023-05-07T12:13:16;11.55;;;8.10;;
21647;SDS011;10985;54.182;7.890;2023-05-07T12:15:43;14.75;;;8.02;;
21647;SDS011;10985;54.182;7.890;2023-05-07T12:18:08;12.43;;;7.80;;
21647;SDS011;10985;54.182;7.890;2023-05-07T12:20:35;11.10;;;7.72;;
21647;SDS011;10985;54.182;7.890;2023-05-07T12:23:02;12.65;;;8.20;;
21647;SDS011;10985;54.182;7.890;2023-05-07T12:25:38;13.13;;;8.50;;
21647;SDS011;10985;54.182;7.890;2023-05-07T12:28:05;14.77;;;8.90;;
21647;SDS011;10985;54.182;7.890;2023-05-07T12:30:36;14.02;;;8.25;;
21647;SDS011;10985;54.182;7.890;2023-05-07T12:33:02;12.75;;;7.95;;
21647;SDS011;10985;54.182;7.890;2023-05-07T12:35:28;15.07;;;7.57;;
21647;SDS011;10985;54.182;7.890;2023-05-07T12:38:00;10.88;;;7.70;;
21647;SDS011;10985;54.182;7.890;2023-05-07T12:40:35;11.65;;;7.10;;
21647;SDS011;10985;54.182;7.890;2023-05-07T12:43:01;10.45;;;7.68;;
21647;SDS011;10985;54.182;7.890;2023-05-07T12:45:27;12.65;;;7.70;;
21647;SDS011;10985;54.182;7.890;2023-05-07T12:47:52;11.25;;;7.55;;
21647;SDS011;10985;54.182;7.890;2023-05-07T12:50:19;14.15;;;8.02;;
21647;SDS011;10985;54.182;7.890;2023-05-07T12:52:47;17.52;;;9.02;;
21647;SDS011;10985;54.182;7.890;2023-05-07T12:55:16;12.77;;;8.20;;
21647;SDS011;10985;54.182;7.890;2023-05-07T12:57:42;13.73;;;8.55;;
21647;SDS011;10985;54.182;7.890;2023-05-07T13:00:10;16.55;;;9.40;;
21647;SDS011;10985;54.182;7.890;2023-05-07T13:02:39;14.75;;;9.68;;
21647;SDS011;10985;54.182;7.890;2023-05-07T13:05:06;14.95;;;9.15;;
21647;SDS011;10985;54.182;7.890;2023-05-07T13:07:32;15.40;;;8.85;;
21647;SDS011;10985;54.182;7.890;2023-05-07T13:09:58;10.55;;;9.13;;
21647;SDS011;10985;54.182;7.890;2023-05-07T13:12:24;11.35;;;9.07;;
21647;SDS011;10985;54.182;7.890;2023-05-07T13:14:49;14.90;;;9.60;;
21647;SDS011;10985;54.182;7.890;2023-05-07T13:17:15;15.20;;;9.85;;
21647;SDS011;10985;54.182;7.890;2023-05-07T13:19:40;11.80;;;9.13;;
21647;SDS011;10985;54.182;7.890;2023-05-07T13:22:06;15.07;;;8.95;;
21647;SDS011;10985;54.182;7.890;2023-05-07T13:24:31;11.45;;;8.35;;
21647;SDS011;10985;54.182;7.890;2023-05-07T13:26:57;13.63;;;9.93;;
21647;SDS011;10985;54.182;7.890;2023-05-07T13:29:22;13.98;;;9.15;;
21647;SDS011;10985;54.182;7.890;2023-05-07T13:31:55;14.90;;;9.82;;
21647;SDS011;10985;54.182;7.890;2023-05-07T13:34:21;13.32;;;9.40;;
21647;SDS011;10985;54.182;7.890;2023-05-07T13:36:47;15.20;;;10.35;;
21647;SDS011;10985;54.182;7.890;2023-05-07T13:39:12;16.95;;;10.70;;
21647;SDS011;10985;54.182;7.890;2023-05-07T13:41:38;19.25;;;11.13;;
21647;SDS011;10985;54.182;7.890;2023-05-07T13:44:03;15.00;;;10.13;;
21647;SDS011;10985;54.182;7.890;2023-05-07T13:46:29;15.70;;;10.73;;
21647;SDS011;10985;54.182;7.890;2023-05-07T13:48:55;15.32;;;10.55;;
21647;SDS011;10985;54.182;7.890;2023-05-07T13:51:21;18.45;;;10.48;;
21647;SDS011;10985;54.182;7.890;2023-05-07T13:53:46;15.18;;;10.65;;
21647;SDS011;10985;54.182;7.890;2023-05-07T13:56:12;14.20;;;9.80;;
21647;SDS011;10985;54.182;7.890;2023-05-07T13:58:39;16.88;;;10.85;;
21647;SDS011;10985;54.182;7.890;2023-05-07T14:01:05;13.80;;;10.50;;
21647;SDS011;10985;54.182;7.890;2023-05-07T14:03:30;16.13;;;10.25;;
21647;SDS011;10985;54.182;7.890;2023-05-07T14:05:57;14.57;;;10.82;;
21647;SDS011;10985;54.182;7.890;2023-05-07T14:08:24;18.15;;;11.38;;
21647;SDS011;10985;54.182;7.890;2023-05-07T14:10:50;19.67;;;11.60;;
21647;SDS011;10985;54.182;7.890;2023-05-07T14:13:16;16.00;;;11.20;;
21647;SDS011;10985;54.182;7.890;2023-05-07T14:15:41;16.27;;;11.15;;
21647;SDS011;10985;54.182;7.890;2023-05-07T14:18:11;17.15;;;11.57;;
21647;SDS011;10985;54.182;7.890;2023-05-07T14:20:37;17.25;;;11.82;;
21647;SDS011;10985;54.182;7.890;2023-05-07T14:23:02;15.80;;;11.80;;
21647;SDS011;10985;54.182;7.890;2023-05-07T14:25:28;16.25;;;12.80;;
21647;SDS011;10985;54.182;7.890;2023-05-07T14:27:54;18.88;;;13.00;;
21647;SDS011;10985;54.182;7.890;2023-05-07T14:30:19;18.70;;;11.90;;
21647;SDS011;10985;54.182;7.890;2023-05-07T14:32:47;18.83;;;12.25;;
21647;SDS011;10985;54.182;7.890;2023-05-07T14:35:12;14.68;;;11.57;;